Аэропорт: Ивано-Франковск. Ивано-Франковск

ICAO: UKLI

METAR:
2019-09-21 16:00:00
UKLI 211600Z 27004MPS CAVOK 16/05 Q1023 R28/090070 NOSIG
METAR:
2019-09-21 14:01:00
TAF UKLI 211401Z 2115/2124 28003MPS 9999 SCT030